Time;durP1;ratioP1;P1;durP2;ratioP2;P2;SDS_P1;SDS_P2;PMS_P1;PMS_P2;Temp;Humidity;BMP_temperature;BMP_pressure;BME280_temperature;BME280_humidity;BME280_pressure;Samples;Min_cycle;Max_cycle;Signal;HPM_P1;HPM_P2
2021/03/07 00:02:23;;;;;;;0.40;0.40;;;4.50;99.90;;;;;;4428318;32;20073;-74
2021/03/07 00:04:48;;;;;;;0.55;0.55;;;4.50;99.90;;;;;;4429684;32;20113;-75
2021/03/07 00:07:14;;;;;;;1.40;0.52;;;4.60;99.90;;;;;;4428881;32;20519;-75
2021/03/07 00:09:39;;;;;;;26.85;0.98;;;4.50;99.90;;;;;;4417578;32;20062;-74
2021/03/07 00:12:05;;;;;;;0.60;0.60;;;4.60;99.90;;;;;;4412467;32;20062;-74
2021/03/07 00:14:30;;;;;;;0.32;0.32;;;4.60;99.90;;;;;;4413967;32;20445;-74
2021/03/07 00:16:56;;;;;;;0.82;0.52;;;4.60;99.90;;;;;;4412646;32;20062;-74
2021/03/07 00:19:21;;;;;;;0.60;0.60;;;4.60;99.90;;;;;;4413045;32;20078;-74
2021/03/07 00:21:47;;;;;;;1.02;0.90;;;4.60;99.90;;;;;;4414626;32;20185;-74
2021/03/07 00:24:12;;;;;;;0.45;0.45;;;4.50;99.90;;;;;;4415276;32;20055;-73
2021/03/07 00:26:38;;;;;;;0.50;0.50;;;4.50;99.90;;;;;;4415601;32;20161;-75
2021/03/07 00:29:04;;;;;;;0.50;0.50;;;4.50;99.90;;;;;;4415865;32;20065;-74
2021/03/07 00:31:30;;;;;;;0.32;0.32;;;4.50;99.90;;;;;;4416300;32;20548;-74
2021/03/07 00:33:55;;;;;;;16.98;1.00;;;4.60;99.90;;;;;;4415182;32;20057;-75
2021/03/07 00:36:21;;;;;;;0.80;0.80;;;4.60;99.90;;;;;;4415579;32;20127;-74
2021/03/07 00:38:47;;;;;;;0.52;0.52;;;4.60;99.90;;;;;;4415587;32;20078;-74
2021/03/07 00:41:12;;;;;;;0.60;0.60;;;4.60;99.90;;;;;;4414769;32;20421;-75
2021/03/07 00:43:38;;;;;;;0.65;0.65;;;4.50;99.90;;;;;;4415257;32;20071;-74
2021/03/07 00:46:05;;;;;;;0.40;0.40;;;4.50;99.90;;;;;;4414744;32;20116;-74
2021/03/07 00:48:31;;;;;;;0.40;0.40;;;4.50;99.90;;;;;;4415431;32;20142;-73
2021/03/07 00:50:56;;;;;;;2.53;0.57;;;4.50;99.90;;;;;;4416061;32;20085;-74
2021/03/07 00:53:22;;;;;;;3.08;0.95;;;4.40;99.90;;;;;;4415758;32;20050;-74
2021/03/07 00:55:47;;;;;;;0.60;0.60;;;4.40;99.90;;;;;;4416680;32;20082;-74
2021/03/07 00:58:13;;;;;;;0.30;0.30;;;4.50;99.90;;;;;;4415342;32;20073;-74
2021/03/07 01:00:38;;;;;;;0.55;0.50;;;4.50;99.90;;;;;;4414490;32;20070;-74
2021/03/07 01:03:05;;;;;;;0.40;0.40;;;4.50;99.90;;;;;;4415874;32;20617;-74
2021/03/07 01:05:31;;;;;;;0.50;0.50;;;4.50;99.90;;;;;;4415965;32;20066;-74
2021/03/07 01:07:56;;;;;;;0.60;0.60;;;4.50;99.90;;;;;;4414921;32;20066;-74
2021/03/07 01:10:28;;;;;;;0.35;0.35;;;4.50;99.90;;;;;;4429572;32;20082;-73
2021/03/07 01:12:53;;;;;;;0.30;0.30;;;4.40;99.90;;;;;;4430659;32;20058;-73
2021/03/07 01:15:27;;;;;;;1.25;0.95;;;4.40;99.90;;;;;;4429922;32;20416;-73
2021/03/07 01:17:52;;;;;;;11.40;0.75;;;4.40;99.90;;;;;;4430320;32;20158;-73
2021/03/07 01:20:19;;;;;;;1.05;0.70;;;4.40;99.90;;;;;;4430076;32;20077;-73
2021/03/07 01:22:44;;;;;;;0.50;0.50;;;4.50;99.90;;;;;;4430126;32;20600;-73
2021/03/07 01:25:11;;;;;;;0.85;0.85;;;4.50;99.90;;;;;;4430144;32;20086;-74
2021/03/07 01:27:37;;;;;;;0.40;0.40;;;4.40;99.90;;;;;;4430396;32;20194;-74
2021/03/07 01:30:09;;;;;;;0.40;0.40;;;4.30;99.90;;;;;;4429642;32;20058;-73
2021/03/07 01:32:35;;;;;;;0.80;0.80;;;4.30;99.90;;;;;;4430409;32;20491;-73
2021/03/07 01:35:01;;;;;;;0.52;0.52;;;4.30;99.90;;;;;;4429878;32;20404;-74
2021/03/07 01:37:27;;;;;;;0.40;0.40;;;4.20;99.90;;;;;;4430137;32;20054;-74
2021/03/07 01:39:54;;;;;;;1.10;0.90;;;4.20;99.90;;;;;;4429713;32;20105;-73
2021/03/07 01:42:20;;;;;;;0.50;0.50;;;4.10;99.90;;;;;;4429487;32;20066;-74
2021/03/07 01:44:45;;;;;;;0.45;0.45;;;4.10;99.90;;;;;;4429509;32;20077;-74
2021/03/07 01:47:13;;;;;;;0.40;0.40;;;4.10;99.90;;;;;;4429939;32;20077;-74
2021/03/07 01:49:39;;;;;;;0.40;0.40;;;4.10;99.90;;;;;;4429956;32;20082;-73
2021/03/07 01:52:05;;;;;;;1.30;0.77;;;4.10;99.90;;;;;;4429544;32;20065;-73
2021/03/07 01:54:31;;;;;;;3.15;1.10;;;4.20;99.90;;;;;;4429396;32;20057;-73
2021/03/07 01:56:58;;;;;;;0.40;0.40;;;4.10;99.90;;;;;;4429946;32;20057;-73
2021/03/07 01:59:26;;;;;;;0.40;0.40;;;4.10;99.90;;;;;;4430009;32;20081;-74
2021/03/07 02:01:51;;;;;;;0.40;0.40;;;4.10;99.90;;;;;;4429446;32;20408;-73
2021/03/07 02:04:17;;;;;;;0.73;0.73;;;4.10;99.90;;;;;;4429711;32;20112;-74
2021/03/07 02:06:42;;;;;;;0.50;0.50;;;4.10;99.90;;;;;;4429645;32;20068;-74
2021/03/07 02:09:08;;;;;;;1.45;1.15;;;4.00;99.90;;;;;;4429281;32;20440;-74
2021/03/07 02:11:37;;;;;;;0.40;0.40;;;4.00;99.90;;;;;;4429345;32;20120;-74
2021/03/07 02:14:06;;;;;;;0.40;0.40;;;4.10;99.90;;;;;;4429395;32;20053;-73
2021/03/07 02:16:32;;;;;;;4.68;0.85;;;4.20;99.90;;;;;;4430136;32;20049;-74
2021/03/07 02:18:58;;;;;;;0.35;0.35;;;4.10;99.90;;;;;;4429339;32;20173;-73
2021/03/07 02:21:32;;;;;;;0.30;0.30;;;4.00;99.90;;;;;;4429451;32;20065;-73
2021/03/07 02:24:04;;;;;;;0.40;0.40;;;4.10;99.90;;;;;;4429349;32;20069;-73
2021/03/07 02:26:30;;;;;;;0.40;0.40;;;4.10;99.90;;;;;;4429188;32;20358;-74
2021/03/07 02:28:56;;;;;;;0.40;0.40;;;4.10;99.90;;;;;;4428753;32;20124;-73
2021/03/07 02:31:25;;;;;;;0.40;0.40;;;4.10;99.90;;;;;;4429368;32;20066;-73
2021/03/07 02:34:14;;;;;;;0.40;0.40;;;4.10;99.90;;;;;;4430236;32;20057;-74
2021/03/07 02:36:44;;;;;;;0.35;0.35;;;4.10;99.90;;;;;;4428192;32;20378;-73
2021/03/07 02:39:11;;;;;;;0.43;0.43;;;4.00;99.90;;;;;;4429352;32;20138;-73
2021/03/07 02:41:36;;;;;;;1.05;1.05;;;3.90;99.90;;;;;;4429096;32;20054;-74
2021/03/07 02:44:06;;;;;;;0.40;0.40;;;3.90;99.90;;;;;;4428887;32;20113;-74
2021/03/07 02:46:33;;;;;;;0.30;0.30;;;3.90;99.90;;;;;;4429804;32;20069;-73
2021/03/07 02:49:01;;;;;;;0.43;0.43;;;3.90;99.90;;;;;;4429169;32;20061;-74
2021/03/07 02:51:30;;;;;;;0.77;0.77;;;3.80;99.90;;;;;;4429307;32;20116;-74
2021/03/07 02:53:59;;;;;;;0.40;0.40;;;3.80;99.90;;;;;;4429328;32;20495;-73
2021/03/07 02:56:28;;;;;;;0.40;0.40;;;3.70;99.90;;;;;;4429070;32;20082;-73
2021/03/07 02:58:59;;;;;;;2.30;0.85;;;3.80;99.90;;;;;;4429427;32;20522;-73
2021/03/07 03:01:27;;;;;;;0.80;0.65;;;3.80;99.90;;;;;;4429578;32;20057;-74
2021/03/07 03:03:54;;;;;;;2.00;0.70;;;3.80;99.90;;;;;;4429740;32;20074;-73
2021/03/07 03:06:21;;;;;;;0.57;0.57;;;3.80;99.90;;;;;;4429021;32;20519;-73
2021/03/07 03:08:51;;;;;;;0.30;0.30;;;3.70;99.90;;;;;;4424061;32;20059;-73
2021/03/07 03:11:19;;;;;;;0.50;0.50;;;3.80;99.90;;;;;;4414829;32;20062;-73
2021/03/07 03:13:48;;;;;;;3.50;1.05;;;3.80;99.90;;;;;;4414082;32;20077;-73
2021/03/07 03:16:14;;;;;;;0.45;0.45;;;3.80;99.90;;;;;;4413917;32;20058;-74
2021/03/07 03:18:41;;;;;;;0.40;0.40;;;3.70;99.90;;;;;;4413947;32;20081;-74
2021/03/07 03:21:10;;;;;;;0.30;0.30;;;3.80;99.90;;;;;;4413321;32;20062;-74
2021/03/07 03:23:35;;;;;;;0.40;0.40;;;3.80;99.90;;;;;;4413566;32;20190;-74
2021/03/07 03:26:01;;;;;;;0.40;0.40;;;3.80;99.90;;;;;;4413616;32;20097;-73
2021/03/07 03:28:26;;;;;;;0.47;0.47;;;3.80;99.90;;;;;;4412982;32;20121;-73
2021/03/07 03:30:53;;;;;;;0.40;0.40;;;3.70;99.90;;;;;;4413215;32;20065;-73
2021/03/07 03:33:20;;;;;;;1.00;0.95;;;3.70;99.90;;;;;;4414351;32;20061;-73
2021/03/07 03:35:46;;;;;;;0.30;0.30;;;3.60;99.90;;;;;;4414792;32;20062;-73
2021/03/07 03:38:11;;;;;;;0.55;0.52;;;3.60;99.90;;;;;;4413402;32;20558;-73
2021/03/07 03:40:38;;;;;;;0.40;0.40;;;3.50;99.90;;;;;;4412975;32;20388;-74
2021/03/07 03:43:07;;;;;;;0.90;0.65;;;3.50;99.90;;;;;;4413277;32;20065;-74
2021/03/07 03:45:36;;;;;;;0.40;0.40;;;3.50;99.90;;;;;;4413278;32;20116;-73
2021/03/07 03:48:05;;;;;;;1.00;0.60;;;3.40;99.90;;;;;;4413463;32;20279;-73
2021/03/07 03:50:31;;;;;;;0.40;0.40;;;3.40;99.90;;;;;;4413185;32;20587;-73
2021/03/07 03:53:01;;;;;;;0.68;0.68;;;3.40;99.90;;;;;;4413567;32;20494;-73
2021/03/07 03:55:29;;;;;;;0.80;0.80;;;3.40;99.90;;;;;;4413278;32;20078;-73
2021/03/07 03:57:58;;;;;;;0.30;0.30;;;3.30;99.90;;;;;;4415691;32;20520;-73
2021/03/07 04:00:26;;;;;;;0.40;0.40;;;3.40;99.90;;;;;;4415376;32;20062;-73
2021/03/07 04:02:54;;;;;;;0.32;0.32;;;3.40;99.90;;;;;;4416196;32;20077;-73
2021/03/07 04:05:23;;;;;;;0.37;0.37;;;3.30;99.90;;;;;;4415725;32;20174;-73
2021/03/07 04:07:50;;;;;;;0.40;0.40;;;3.20;99.90;;;;;;4415915;32;20086;-74
2021/03/07 04:10:17;;;;;;;0.60;0.60;;;3.10;99.90;;;;;;4429144;32;20090;-73
2021/03/07 04:12:46;;;;;;;0.30;0.30;;;3.10;99.90;;;;;;4430981;32;20081;-73
2021/03/07 04:15:13;;;;;;;0.40;0.40;;;3.10;99.90;;;;;;4431069;32;20070;-74
2021/03/07 04:17:41;;;;;;;0.37;0.37;;;3.10;99.90;;;;;;4431337;32;20409;-73
2021/03/07 04:20:08;;;;;;;0.50;0.50;;;3.10;99.90;;;;;;4431019;32;20062;-75
2021/03/07 04:22:34;;;;;;;0.77;0.77;;;3.10;99.90;;;;;;4430913;32;20094;-74
2021/03/07 04:25:00;;;;;;;5.15;1.23;;;3.10;99.90;;;;;;4430925;32;20073;-73
2021/03/07 04:27:25;;;;;;;0.35;0.35;;;3.10;99.90;;;;;;4431168;32;20061;-73
2021/03/07 04:29:51;;;;;;;0.50;0.50;;;3.10;99.90;;;;;;4429827;32;20089;-74
2021/03/07 04:32:18;;;;;;;0.40;0.40;;;3.00;99.90;;;;;;4430980;32;20061;-74
2021/03/07 04:34:45;;;;;;;0.40;0.40;;;3.00;99.90;;;;;;4431699;32;20066;-73
2021/03/07 04:37:11;;;;;;;0.37;0.37;;;3.00;99.90;;;;;;4430940;32;20440;-73
2021/03/07 04:39:37;;;;;;;0.40;0.40;;;3.00;99.90;;;;;;4430801;32;20058;-74
2021/03/07 04:42:04;;;;;;;0.45;0.45;;;3.00;99.90;;;;;;4430261;32;20064;-74
2021/03/07 04:44:29;;;;;;;0.62;0.62;;;2.90;99.90;;;;;;4430818;32;20057;-73
2021/03/07 04:46:55;;;;;;;0.40;0.40;;;2.90;99.90;;;;;;4430453;32;20116;-73
2021/03/07 04:49:20;;;;;;;0.40;0.40;;;2.90;99.90;;;;;;4430612;32;20061;-73
2021/03/07 04:51:46;;;;;;;0.70;0.70;;;2.90;99.90;;;;;;4430702;32;20546;-74
2021/03/07 04:54:11;;;;;;;0.85;0.82;;;2.90;99.90;;;;;;4430704;32;20062;-73
2021/03/07 04:56:37;;;;;;;0.40;0.40;;;2.90;99.90;;;;;;4430696;32;20074;-73
2021/03/07 04:59:02;;;;;;;0.40;0.40;;;2.80;99.90;;;;;;4430092;32;20400;-73
2021/03/07 05:01:28;;;;;;;0.43;0.43;;;2.90;99.90;;;;;;4431274;32;20061;-73
2021/03/07 05:03:53;;;;;;;0.40;0.40;;;2.90;99.90;;;;;;4431189;32;20490;-73
2021/03/07 05:06:24;;;;;;;0.47;0.47;;;3.00;99.90;;;;;;4430677;32;20061;-73
2021/03/07 05:08:49;;;;;;;0.50;0.50;;;3.10;99.90;;;;;;4424960;32;20078;-73
2021/03/07 05:11:16;;;;;;;0.40;0.40;;;3.00;99.90;;;;;;4414465;32;20453;-73
2021/03/07 05:13:41;;;;;;;4.12;1.20;;;3.00;99.90;;;;;;4415973;32;20539;-73
2021/03/07 05:16:08;;;;;;;3.03;0.80;;;3.00;99.90;;;;;;4414857;32;20144;-73
2021/03/07 05:18:34;;;;;;;0.40;0.40;;;2.90;99.90;;;;;;4415070;32;20117;-73
2021/03/07 05:20:59;;;;;;;0.40;0.40;;;2.90;99.90;;;;;;4414312;32;20456;-73
2021/03/07 05:23:25;;;;;;;0.60;0.52;;;2.90;99.90;;;;;;4415109;32;20399;-73
2021/03/07 05:25:51;;;;;;;0.40;0.40;;;2.90;99.90;;;;;;4414506;32;20066;-73
2021/03/07 05:28:16;;;;;;;0.37;0.37;;;2.90;99.90;;;;;;4414510;32;20066;-73
2021/03/07 05:30:42;;;;;;;0.40;0.40;;;2.90;99.90;;;;;;4414067;32;20070;-73
2021/03/07 05:33:07;;;;;;;0.30;0.30;;;3.00;99.90;;;;;;4414695;32;20070;-73
2021/03/07 05:35:33;;;;;;;0.30;0.30;;;3.10;99.90;;;;;;4414755;32;20610;-75
2021/03/07 05:37:58;;;;;;;0.40;0.40;;;3.00;99.90;;;;;;4416038;32;20077;-74
2021/03/07 05:40:25;;;;;;;0.47;0.47;;;2.90;99.90;;;;;;4414655;32;20073;-73
2021/03/07 05:42:52;;;;;;;0.30;0.30;;;2.90;99.90;;;;;;4414597;32;20523;-74
2021/03/07 05:45:17;;;;;;;0.40;0.40;;;2.80;99.90;;;;;;4414281;32;20073;-74
2021/03/07 05:47:43;;;;;;;0.55;0.55;;;2.80;99.90;;;;;;4414877;32;20562;-74
2021/03/07 05:50:09;;;;;;;0.50;0.50;;;2.90;99.90;;;;;;4415051;32;20123;-74
2021/03/07 05:52:35;;;;;;;0.40;0.40;;;2.80;99.90;;;;;;4414507;32;20116;-74
2021/03/07 05:55:01;;;;;;;0.40;0.40;;;2.80;99.90;;;;;;4414582;32;20176;-74
2021/03/07 05:57:27;;;;;;;0.40;0.40;;;2.80;99.90;;;;;;4416103;32;20058;-74
2021/03/07 05:59:53;;;;;;;0.37;0.37;;;2.80;99.90;;;;;;4413990;32;20062;-74
2021/03/07 06:02:19;;;;;;;0.40;0.40;;;2.90;99.90;;;;;;4414311;32;20464;-74
2021/03/07 06:04:50;;;;;;;0.45;0.45;;;2.90;99.90;;;;;;4415608;32;20058;-73
2021/03/07 06:07:15;;;;;;;0.40;0.40;;;2.90;99.90;;;;;;4414849;32;20481;-74
2021/03/07 06:09:41;;;;;;;0.62;0.62;;;3.00;99.90;;;;;;4424507;32;20146;-74
2021/03/07 06:12:14;;;;;;;0.40;0.40;;;3.00;99.90;;;;;;4429230;32;20061;-74
2021/03/07 06:14:41;;;;;;;0.40;0.40;;;2.90;99.90;;;;;;4429062;32;20603;-74
2021/03/07 06:17:09;;;;;;;0.40;0.40;;;3.00;99.90;;;;;;4429242;32;20074;-74
2021/03/07 06:19:56;;;;;;;0.40;0.40;;;2.90;99.90;;;;;;4428789;32;20082;-74
2021/03/07 06:22:22;;;;;;;0.35;0.35;;;3.10;99.90;;;;;;4428726;32;20062;-73
2021/03/07 06:24:48;;;;;;;0.30;0.30;;;3.10;99.90;;;;;;4429793;32;20070;-75
2021/03/07 06:27:17;;;;;;;0.35;0.35;;;3.10;99.90;;;;;;4429040;32;20554;-74
2021/03/07 06:30:01;;;;;;;0.30;0.30;;;3.00;99.90;;;;;;4429230;32;20062;-75
2021/03/07 06:32:29;;;;;;;0.57;0.57;;;2.90;99.90;;;;;;4430210;32;20061;-73
2021/03/07 06:34:55;;;;;;;0.40;0.40;;;3.00;99.90;;;;;;4430119;32;20078;-73
2021/03/07 06:37:21;;;;;;;0.40;0.40;;;3.00;99.90;;;;;;4429152;32;20547;-73
2021/03/07 06:39:48;;;;;;;0.30;0.30;;;3.10;99.90;;;;;;4429006;32;20078;-74
2021/03/07 06:42:14;;;;;;;0.50;0.50;;;3.10;99.90;;;;;;4429909;32;20065;-74
2021/03/07 06:44:53;;;;;;;0.40;0.40;;;3.20;99.90;;;;;;4429200;32;20070;-74
2021/03/07 06:47:19;;;;;;;1.08;0.98;;;3.20;99.90;;;;;;4428988;32;20233;-74
2021/03/07 06:49:45;;;;;;;0.50;0.50;;;3.20;99.90;;;;;;4429123;32;20065;-74
2021/03/07 06:52:16;;;;;;;0.60;0.60;;;3.20;99.90;;;;;;4429032;32;20081;-74
2021/03/07 06:54:43;;;;;;;0.60;0.60;;;3.10;99.90;;;;;;4429365;32;20069;-74
2021/03/07 06:57:09;;;;;;;0.50;0.50;;;3.10;99.90;;;;;;4428761;32;20085;-74
2021/03/07 06:59:35;;;;;;;0.40;0.40;;;3.20;99.90;;;;;;4429373;32;20073;-74
2021/03/07 07:02:08;;;;;;;0.40;0.40;;;3.10;99.90;;;;;;4428735;32;20065;-74
2021/03/07 07:04:43;;;;;;;0.43;0.43;;;3.10;99.90;;;;;;4429074;32;20120;-74
2021/03/07 07:07:12;;;;;;;0.75;0.75;;;3.10;99.90;;;;;;4428746;32;20119;-73
2021/03/07 07:09:38;;;;;;;0.40;0.40;;;3.10;99.90;;;;;;4418552;32;20074;-74
2021/03/07 07:12:08;;;;;;;1.27;1.17;;;3.10;99.90;;;;;;4413494;32;20113;-73
2021/03/07 07:14:40;;;;;;;4.55;1.58;;;3.10;99.90;;;;;;4414032;32;20074;-73
2021/03/07 07:17:07;;;;;;;0.40;0.40;;;3.10;99.90;;;;;;4413409;32;20066;-73
2021/03/07 07:19:32;;;;;;;0.95;0.77;;;3.10;99.90;;;;;;4413644;32;20520;-74
2021/03/07 07:21:58;;;;;;;0.35;0.35;;;3.20;99.90;;;;;;4413159;32;20070;-74
2021/03/07 07:24:24;;;;;;;0.32;0.32;;;3.10;99.90;;;;;;4413772;32;20128;-74
2021/03/07 07:26:49;;;;;;;0.40;0.40;;;3.20;99.90;;;;;;4413609;32;20503;-74
2021/03/07 07:29:17;;;;;;;0.40;0.40;;;3.30;99.90;;;;;;4412996;32;20090;-74
2021/03/07 07:31:55;;;;;;;0.30;0.30;;;3.40;99.90;;;;;;4413052;32;20074;-74
2021/03/07 07:34:28;;;;;;;0.40;0.40;;;3.30;99.90;;;;;;4413302;32;20125;-74
2021/03/07 07:37:02;;;;;;;0.68;0.68;;;3.30;99.90;;;;;;4413469;32;20086;-74
2021/03/07 07:39:38;;;;;;;0.30;0.30;;;3.20;99.90;;;;;;4414441;32;20120;-74
2021/03/07 07:42:19;;;;;;;0.40;0.40;;;3.20;99.90;;;;;;4412431;32;20074;-74
2021/03/07 07:44:45;;;;;;;0.93;0.75;;;3.20;99.90;;;;;;4412800;32;20550;-74
2021/03/07 07:47:10;;;;;;;0.50;0.50;;;3.20;99.90;;;;;;4414475;32;20069;-74
2021/03/07 07:49:46;;;;;;;0.40;0.40;;;3.30;99.90;;;;;;4413570;32;20077;-75
2021/03/07 07:52:30;;;;;;;2.92;1.37;;;3.20;99.90;;;;;;4413151;32;20070;-74
2021/03/07 07:54:58;;;;;;;0.37;0.37;;;3.30;99.90;;;;;;4412919;32;20083;-74
2021/03/07 07:57:40;;;;;;;0.35;0.35;;;3.30;99.90;;;;;;4413934;32;20502;-74
2021/03/07 08:00:12;;;;;;;0.40;0.40;;;3.30;99.90;;;;;;4411828;32;20086;-74
2021/03/07 08:02:55;;;;;;;7.00;1.02;;;3.30;99.90;;;;;;4414242;32;20054;-74
2021/03/07 08:05:26;;;;;;;0.45;0.45;;;3.30;99.90;;;;;;4414212;32;20437;-74
2021/03/07 08:08:01;;;;;;;0.50;0.50;;;3.40;99.90;;;;;;4412954;32;20054;-74
2021/03/07 08:10:47;;;;;;;0.30;0.30;;;3.40;99.90;;;;;;4397302;32;20117;-74
2021/03/07 08:13:15;;;;;;;0.50;0.50;;;3.40;99.90;;;;;;4396726;32;20499;-75
2021/03/07 08:15:43;;;;;;;0.50;0.50;;;3.40;99.90;;;;;;4398000;32;20074;-74
2021/03/07 08:18:09;;;;;;;0.40;0.40;;;3.50;99.90;;;;;;4399541;32;20074;-74
2021/03/07 08:20:40;;;;;;;0.30;0.30;;;3.40;99.90;;;;;;4398801;32;20128;-74
2021/03/07 08:23:11;;;;;;;0.40;0.40;;;3.50;99.90;;;;;;4398151;32;20071;-74
2021/03/07 08:25:54;;;;;;;0.70;0.70;;;3.60;99.90;;;;;;4398191;32;20086;-75
2021/03/07 08:28:29;;;;;;;0.55;0.55;;;3.50;99.90;;;;;;4398768;32;20066;-73
2021/03/07 08:30:58;;;;;;;0.40;0.40;;;3.60;99.90;;;;;;4398480;32;20065;-74
2021/03/07 08:33:33;;;;;;;0.40;0.40;;;3.60;99.90;;;;;;4397733;32;20066;-74
2021/03/07 08:36:13;;;;;;;0.40;0.40;;;3.60;99.90;;;;;;4397702;32;20154;-75
2021/03/07 08:39:03;;;;;;;0.40;0.40;;;3.60;99.90;;;;;;4397240;32;20091;-74
2021/03/07 08:41:35;;;;;;;0.30;0.30;;;3.60;99.90;;;;;;4396102;32;20070;-73
2021/03/07 08:44:10;;;;;;;0.82;0.82;;;3.70;99.90;;;;;;4400782;32;20082;-73
2021/03/07 08:46:45;;;;;;;0.40;0.40;;;3.80;99.90;;;;;;4400998;32;20157;-74
2021/03/07 08:49:16;;;;;;;0.30;0.30;;;3.80;99.90;;;;;;4400167;32;20139;-73
2021/03/07 08:51:45;;;;;;;0.60;0.60;;;3.70;99.90;;;;;;4400484;32;20512;-73
2021/03/07 08:54:12;;;;;;;0.43;0.43;;;3.70;99.90;;;;;;4400163;32;20521;-74
2021/03/07 08:56:39;;;;;;;0.43;0.43;;;3.60;99.90;;;;;;4400474;32;20428;-73
2021/03/07 08:59:05;;;;;;;0.47;0.47;;;3.70;99.90;;;;;;4399094;32;20121;-73
2021/03/07 09:01:31;;;;;;;1.25;0.73;;;3.70;99.90;;;;;;4400132;32;20066;-75
2021/03/07 09:03:59;;;;;;;0.35;0.35;;;3.70;99.90;;;;;;4400610;32;20138;-74
2021/03/07 09:06:34;;;;;;;0.37;0.37;;;3.80;99.90;;;;;;4400108;32;20632;-73
2021/03/07 09:09:10;;;;;;;0.47;0.47;;;3.90;99.90;;;;;;4412325;32;20083;-73
2021/03/07 09:11:57;;;;;;;0.40;0.40;;;3.80;99.90;;;;;;4429618;32;20078;-73
2021/03/07 09:14:28;;;;;;;0.30;0.30;;;3.70;99.90;;;;;;4429076;32;20138;-74
2021/03/07 09:16:53;;;;;;;0.40;0.40;;;3.60;99.90;;;;;;4429816;32;20069;-73
2021/03/07 09:19:23;;;;;;;0.45;0.43;;;3.70;99.90;;;;;;4430374;32;20061;-73
2021/03/07 09:22:09;;;;;;;0.77;0.77;;;3.90;99.90;;;;;;4429737;32;20078;-74
2021/03/07 09:24:35;;;;;;;0.40;0.40;;;4.00;99.90;;;;;;4430107;32;20054;-74
2021/03/07 09:27:16;;;;;;;0.47;0.47;;;3.90;99.90;;;;;;4429762;32;20061;-74
2021/03/07 09:30:00;;;;;;;0.30;0.30;;;3.90;99.90;;;;;;4430626;32;20058;-74
2021/03/07 09:32:30;;;;;;;5.05;1.70;;;3.90;99.90;;;;;;4430717;32;20128;-74
2021/03/07 09:34:58;;;;;;;0.40;0.40;;;3.90;99.90;;;;;;4430082;32;20074;-74
2021/03/07 09:37:24;;;;;;;0.40;0.40;;;3.90;99.90;;;;;;4430279;32;20053;-74
2021/03/07 09:39:50;;;;;;;0.45;0.45;;;3.90;99.90;;;;;;4430891;32;20057;-74
2021/03/07 09:42:18;;;;;;;0.30;0.30;;;3.90;99.90;;;;;;4430385;32;20120;-74
2021/03/07 09:44:44;;;;;;;0.60;0.60;;;4.00;99.90;;;;;;4430695;32;20152;-74
2021/03/07 09:47:10;;;;;;;0.40;0.40;;;3.90;99.90;;;;;;4430969;32;20126;-74
2021/03/07 09:49:38;;;;;;;4.35;0.98;;;4.10;99.90;;;;;;4429915;32;20526;-74
2021/03/07 09:52:04;;;;;;;0.45;0.45;;;4.00;99.90;;;;;;4430671;32;20116;-74
2021/03/07 09:54:30;;;;;;;2.22;1.50;;;4.00;99.90;;;;;;4430014;32;20062;-74
2021/03/07 09:56:56;;;;;;;0.32;0.32;;;4.00;99.90;;;;;;4430634;32;20069;-74
2021/03/07 09:59:27;;;;;;;0.40;0.40;;;4.10;99.90;;;;;;4430228;32;20061;-75
2021/03/07 10:01:58;;;;;;;0.40;0.40;;;4.00;99.90;;;;;;4430496;32;20065;-74
2021/03/07 10:04:45;;;;;;;1.00;0.95;;;4.10;99.90;;;;;;4430790;32;20066;-74
2021/03/07 10:07:17;;;;;;;0.30;0.30;;;4.00;99.90;;;;;;4429686;32;20077;-74
2021/03/07 10:10:00;;;;;;;0.93;0.70;;;4.00;99.90;;;;;;4419722;32;20066;-74
2021/03/07 10:12:50;;;;;;;0.45;0.45;;;4.10;99.90;;;;;;4414228;32;20141;-74
2021/03/07 10:15:34;;;;;;;0.45;0.45;;;4.20;99.90;;;;;;4412922;32;20061;-74
2021/03/07 10:18:15;;;;;;;0.40;0.40;;;4.20;99.90;;;;;;4413903;32;20124;-75
2021/03/07 10:20:43;;;;;;;0.30;0.30;;;4.20;99.90;;;;;;4413967;32;20125;-74
2021/03/07 10:23:10;;;;;;;0.45;0.45;;;4.20;99.90;;;;;;4415306;32;20053;-74
2021/03/07 10:25:39;;;;;;;0.40;0.40;;;4.20;99.90;;;;;;4414174;32;20082;-74
2021/03/07 10:28:07;;;;;;;6.03;0.77;;;4.20;99.90;;;;;;4414240;32;20081;-74
2021/03/07 10:30:37;;;;;;;0.50;0.50;;;4.10;99.90;;;;;;4413364;32;20062;-74
2021/03/07 10:33:17;;;;;;;0.37;0.37;;;4.10;99.90;;;;;;4414007;32;20120;-74
2021/03/07 10:36:01;;;;;;;0.70;0.70;;;4.20;99.90;;;;;;4415239;32;20447;-74
2021/03/07 10:38:28;;;;;;;0.37;0.37;;;4.20;99.90;;;;;;4415037;32;20544;-74
2021/03/07 10:40:53;;;;;;;6.15;2.30;;;4.20;99.90;;;;;;4414447;32;20066;-74
2021/03/07 10:43:19;;;;;;;0.50;0.50;;;4.10;99.90;;;;;;4409493;32;114158;-74
2021/03/07 10:45:44;;;;;;;0.40;0.40;;;4.20;99.90;;;;;;4413654;32;20054;-74
2021/03/07 10:48:12;;;;;;;0.55;0.55;;;4.20;99.90;;;;;;4414167;32;20165;-74
2021/03/07 10:50:43;;;;;;;0.80;0.62;;;4.20;99.90;;;;;;4414087;32;20078;-74
2021/03/07 10:53:09;;;;;;;0.40;0.40;;;4.30;99.90;;;;;;4413644;32;20159;-74
2021/03/07 10:55:35;;;;;;;0.40;0.40;;;4.20;99.90;;;;;;4413710;32;20077;-74
2021/03/07 10:58:01;;;;;;;2.40;1.40;;;4.30;99.90;;;;;;4414110;32;20134;-74
2021/03/07 11:00:26;;;;;;;0.40;0.40;;;4.40;99.90;;;;;;4413027;32;20398;-73
2021/03/07 11:02:53;;;;;;;0.40;0.40;;;4.30;99.90;;;;;;4413571;32;20518;-73
2021/03/07 11:05:19;;;;;;;0.30;0.30;;;4.20;99.90;;;;;;4413199;32;20070;-73
2021/03/07 11:07:45;;;;;;;0.60;0.60;;;4.20;99.90;;;;;;4413946;32;20140;-73
2021/03/07 11:10:13;;;;;;;0.40;0.40;;;4.40;99.90;;;;;;4426794;32;20555;-73
2021/03/07 11:12:39;;;;;;;0.30;0.30;;;4.30;99.90;;;;;;4429368;32;20112;-73
2021/03/07 11:15:07;;;;;;;0.60;0.60;;;4.40;99.90;;;;;;4428625;32;20058;-73
2021/03/07 11:17:33;;;;;;;0.35;0.35;;;4.40;99.90;;;;;;4428482;32;20111;-73
2021/03/07 11:19:59;;;;;;;0.73;0.73;;;4.30;99.90;;;;;;4429545;32;20545;-73
2021/03/07 11:22:25;;;;;;;0.68;0.68;;;4.40;99.90;;;;;;4428376;32;20061;-73
2021/03/07 11:24:50;;;;;;;0.65;0.65;;;4.50;99.90;;;;;;4428869;32;20082;-73
2021/03/07 11:27:16;;;;;;;0.40;0.40;;;4.40;99.90;;;;;;4428690;32;20153;-73
2021/03/07 11:29:41;;;;;;;0.40;0.40;;;4.40;99.90;;;;;;4428387;32;20069;-73
2021/03/07 11:32:07;;;;;;;0.65;0.55;;;4.30;99.90;;;;;;4428630;32;20069;-73
2021/03/07 11:34:33;;;;;;;0.43;0.43;;;4.30;99.90;;;;;;4430167;32;20405;-73
2021/03/07 11:36:58;;;;;;;0.47;0.47;;;4.30;99.90;;;;;;4429145;32;20061;-73
2021/03/07 11:39:24;;;;;;;0.40;0.40;;;4.30;99.90;;;;;;4429469;32;20065;-72
2021/03/07 11:41:49;;;;;;;0.40;0.40;;;4.30;99.90;;;;;;4428644;32;20057;-75
2021/03/07 11:44:15;;;;;;;0.40;0.40;;;4.40;99.90;;;;;;4428851;32;20165;-74
2021/03/07 11:46:40;;;;;;;0.43;0.43;;;4.40;99.90;;;;;;4428564;32;20061;-73
2021/03/07 11:49:06;;;;;;;0.30;0.30;;;4.30;99.90;;;;;;4429421;32;20510;-73
2021/03/07 11:51:31;;;;;;;0.50;0.50;;;4.40;99.90;;;;;;4429073;32;20489;-73
2021/03/07 11:53:57;;;;;;;0.73;0.70;;;4.40;99.90;;;;;;4428140;32;20450;-73
2021/03/07 11:56:22;;;;;;;0.50;0.50;;;4.40;99.90;;;;;;4428715;32;20077;-73
2021/03/07 11:58:48;;;;;;;5.50;1.42;;;4.40;99.90;;;;;;4428549;32;20526;-73
2021/03/07 12:01:14;;;;;;;0.47;0.47;;;4.40;99.90;;;;;;4428053;32;20123;-73
2021/03/07 12:03:40;;;;;;;1.02;0.98;;;4.40;99.90;;;;;;4428309;32;20074;-73
2021/03/07 12:06:05;;;;;;;0.50;0.50;;;4.40;99.90;;;;;;4429617;32;20065;-73
2021/03/07 12:08:30;;;;;;;0.37;0.37;;;4.30;99.90;;;;;;4425056;32;20120;-73
2021/03/07 12:10:56;;;;;;;0.60;0.60;;;4.50;99.90;;;;;;4412617;32;20396;-73
2021/03/07 12:13:22;;;;;;;0.40;0.40;;;4.50;99.90;;;;;;4412927;32;20066;-73
2021/03/07 12:15:47;;;;;;;0.43;0.43;;;4.60;99.90;;;;;;4412435;32;20101;-73
2021/03/07 12:18:13;;;;;;;0.40;0.40;;;4.40;99.90;;;;;;4414656;32;20520;-72
2021/03/07 12:20:38;;;;;;;0.47;0.47;;;4.30;99.90;;;;;;4416586;32;20085;-73
2021/03/07 12:23:03;;;;;;;0.43;0.43;;;4.40;99.90;;;;;;4415459;32;20170;-73
2021/03/07 12:25:29;;;;;;;0.40;0.40;;;4.40;99.90;;;;;;4415600;32;20440;-73
2021/03/07 12:27:54;;;;;;;0.40;0.40;;;4.40;99.90;;;;;;4415563;32;20125;-72
2021/03/07 12:30:20;;;;;;;0.30;0.30;;;4.40;99.90;;;;;;4415149;32;20058;-74
2021/03/07 12:32:46;;;;;;;0.32;0.32;;;4.40;99.90;;;;;;4415226;32;20113;-73
2021/03/07 12:35:13;;;;;;;0.30;0.30;;;4.50;99.90;;;;;;4415454;32;20074;-73
2021/03/07 12:37:38;;;;;;;0.98;0.85;;;4.60;99.90;;;;;;4415699;32;20070;-73
2021/03/07 12:40:05;;;;;;;0.50;0.50;;;4.50;99.90;;;;;;4415232;32;20165;-73
2021/03/07 12:42:31;;;;;;;0.30;0.30;;;4.60;99.90;;;;;;4416746;32;20189;-73
2021/03/07 12:44:57;;;;;;;5.93;1.00;;;4.50;99.90;;;;;;4416005;32;20514;-73
2021/03/07 12:47:23;;;;;;;0.90;0.90;;;4.50;99.90;;;;;;4416910;32;20078;-72
2021/03/07 12:49:49;;;;;;;0.30;0.30;;;4.60;99.90;;;;;;4415850;32;20069;-74
2021/03/07 12:52:14;;;;;;;0.60;0.60;;;4.50;99.90;;;;;;4416120;32;20061;-74
2021/03/07 12:54:40;;;;;;;1.75;0.77;;;4.40;99.90;;;;;;4416087;32;20514;-74
2021/03/07 12:57:06;;;;;;;0.40;0.40;;;4.40;99.90;;;;;;4416253;32;20131;-73
2021/03/07 12:59:31;;;;;;;0.50;0.50;;;4.40;99.90;;;;;;4414568;32;20413;-74
2021/03/07 13:01:56;;;;;;;0.65;0.65;;;4.50;99.90;;;;;;4416121;32;20073;-73
2021/03/07 13:04:22;;;;;;;0.40;0.40;;;4.60;99.90;;;;;;4415188;32;20483;-73